createdAt,value
2022-08-28T00:00:23.801Z,97.23
2022-08-28T00:02:50.542Z,97.67
2022-08-28T00:05:18.388Z,97.55
2022-08-28T00:07:47.854Z,97.90
2022-08-28T00:10:14.980Z,97.57
2022-08-28T00:12:41.735Z,97.49
2022-08-28T00:15:11.908Z,98.16
2022-08-28T00:17:39.720Z,98.37
2022-08-28T00:20:07.147Z,98.20
2022-08-28T00:22:33.740Z,98.29
2022-08-28T00:25:00.494Z,98.17
2022-08-28T00:27:27.299Z,98.27
2022-08-28T00:29:53.921Z,98.53
2022-08-28T00:32:20.942Z,98.39
2022-08-28T00:34:47.633Z,97.90
2022-08-28T00:37:14.256Z,97.63
2022-08-28T00:39:41.004Z,97.56
2022-08-28T00:42:08.339Z,98.30
2022-08-28T00:44:35.088Z,98.27
2022-08-28T00:47:01.849Z,98.62
2022-08-28T00:49:33.744Z,98.34
2022-08-28T00:52:00.674Z,97.70
2022-08-28T00:54:27.505Z,98.04
2022-08-28T00:56:55.117Z,98.20
2022-08-28T00:59:24.244Z,98.15
2022-08-28T01:01:52.291Z,97.94
2022-08-28T01:04:19.339Z,98.01
2022-08-28T01:06:46.434Z,97.54
2022-08-28T01:09:13.071Z,98.05
2022-08-28T01:11:40.430Z,98.04
2022-08-28T01:14:07.093Z,97.34
2022-08-28T01:16:33.998Z,97.96
2022-08-28T01:19:01.723Z,97.97
2022-08-28T01:21:30.995Z,97.65
2022-08-28T01:24:02.588Z,97.34
2022-08-28T01:26:29.285Z,96.99
2022-08-28T01:28:56.972Z,97.97
2022-08-28T01:31:23.910Z,97.51
2022-08-28T01:33:50.685Z,97.44
2022-08-28T01:36:17.668Z,97.82
2022-08-28T01:38:46.161Z,97.71
2022-08-28T01:41:13.093Z,98.04
2022-08-28T01:43:40.187Z,97.46
2022-08-28T01:46:07.165Z,97.72
2022-08-28T01:48:35.585Z,97.67
2022-08-28T01:51:03.314Z,97.61
2022-08-28T01:53:32.966Z,97.97
2022-08-28T01:56:01.338Z,98.21
2022-08-28T01:58:29.012Z,97.85
2022-08-28T02:00:56.909Z,97.32
2022-08-28T02:03:23.584Z,97.21
2022-08-28T02:05:50.236Z,97.21
2022-08-28T02:08:17.014Z,96.86
2022-08-28T02:10:44.026Z,96.85
2022-08-28T02:13:10.719Z,96.78
2022-08-28T02:15:37.848Z,96.70
2022-08-28T02:18:04.840Z,96.12
2022-08-28T02:20:31.784Z,96.48
2022-08-28T02:22:58.478Z,96.15
2022-08-28T02:25:25.527Z,96.89
2022-08-28T02:27:52.145Z,96.25
2022-08-28T02:30:18.867Z,95.92
2022-08-28T02:32:45.824Z,96.54
2022-08-28T02:35:13.723Z,96.27
2022-08-28T02:37:40.369Z,96.12
2022-08-28T02:40:07.672Z,96.56
2022-08-28T02:42:34.410Z,96.30
2022-08-28T02:45:00.997Z,97.16
2022-08-28T02:47:27.648Z,96.70
2022-08-28T02:49:54.279Z,96.48
2022-08-28T02:52:20.868Z,96.26
2022-08-28T02:54:47.668Z,96.38
2022-08-28T02:57:14.698Z,96.24
2022-08-28T02:59:41.359Z,96.41
2022-08-28T03:02:08.009Z,96.58
2022-08-28T03:04:35.173Z,95.81
2022-08-28T03:07:01.877Z,96.09
2022-08-28T03:09:28.506Z,96.13
2022-08-28T03:11:55.164Z,96.33
2022-08-28T03:14:22.329Z,95.58
2022-08-28T03:16:49.402Z,96.24
2022-08-28T03:19:16.219Z,96.40
2022-08-28T03:21:42.900Z,96.20
2022-08-28T03:24:09.799Z,96.17
2022-08-28T03:26:36.421Z,96.16
2022-08-28T03:29:03.202Z,96.18
2022-08-28T03:31:29.942Z,96.34
2022-08-28T03:33:56.705Z,96.21
2022-08-28T03:36:25.413Z,95.89
2022-08-28T03:38:52.933Z,95.86
2022-08-28T03:41:21.069Z,96.58
2022-08-28T03:43:47.730Z,96.54
2022-08-28T03:46:19.286Z,96.66
2022-08-28T03:48:46.181Z,96.78
2022-08-28T03:51:15.907Z,96.83
2022-08-28T03:53:44.417Z,97.18
2022-08-28T03:56:12.759Z,97.68
2022-08-28T03:58:40.014Z,97.60
2022-08-28T04:01:06.938Z,97.26
2022-08-28T04:03:33.895Z,97.51
2022-08-28T04:06:00.795Z,97.59
2022-08-28T04:08:27.727Z,96.26
2022-08-28T04:10:54.563Z,96.59
2022-08-28T04:13:21.398Z,96.58
2022-08-28T04:16:01.466Z,96.98
2022-08-28T04:18:30.030Z,96.88
2022-08-28T04:21:05.423Z,96.59
2022-08-28T04:23:32.236Z,96.53
2022-08-28T04:25:58.843Z,96.55
2022-08-28T04:28:25.661Z,96.65
2022-08-28T04:30:52.981Z,96.97
2022-08-28T04:33:19.714Z,97.37
2022-08-28T04:35:46.390Z,97.78
2022-08-28T04:38:13.351Z,97.39
2022-08-28T04:40:40.694Z,97.71
2022-08-28T04:43:07.394Z,97.93
2022-08-28T04:45:38.247Z,97.66
2022-08-28T04:48:05.384Z,97.69
2022-08-28T04:50:37.021Z,97.78
2022-08-28T04:53:03.699Z,98.03
2022-08-28T04:55:54.351Z,97.64
2022-08-28T04:58:23.787Z,97.70
2022-08-28T05:00:54.724Z,97.29
2022-08-28T05:03:22.209Z,97.74
2022-08-28T05:05:54.220Z,97.23
2022-08-28T05:08:25.178Z,97.38
2022-08-28T05:10:52.144Z,97.43
2022-08-28T05:13:19.665Z,97.63
2022-08-28T05:15:48.979Z,97.68
2022-08-28T05:18:18.960Z,97.80
2022-08-28T05:20:47.414Z,97.27
2022-08-28T05:23:19.260Z,97.66
2022-08-28T05:25:50.514Z,97.39
2022-08-28T05:28:17.903Z,97.31
2022-08-28T05:30:45.051Z,96.87
2022-08-28T05:33:12.933Z,96.78
2022-08-28T05:35:41.770Z,96.51
2022-08-28T05:38:08.771Z,96.60
2022-08-28T05:40:44.274Z,95.68
2022-08-28T05:43:12.497Z,96.59
2022-08-28T05:45:42.455Z,96.19
2022-08-28T05:48:10.407Z,96.44
2022-08-28T05:50:39.155Z,95.77
2022-08-28T05:53:10.466Z,95.65
2022-08-28T05:55:40.669Z,95.15
2022-08-28T05:58:08.303Z,95.41
2022-08-28T06:00:41.401Z,94.97
2022-08-28T06:03:08.643Z,94.77
2022-08-28T06:05:36.033Z,95.82
2022-08-28T06:08:03.154Z,94.47
2022-08-28T06:10:32.686Z,95.08
2022-08-28T06:13:01.313Z,94.93
2022-08-28T06:15:28.967Z,95.56
2022-08-28T06:17:56.352Z,94.80
2022-08-28T06:20:26.126Z,94.50
2022-08-28T06:22:53.138Z,94.45
2022-08-28T06:25:20.682Z,94.78
2022-08-28T06:27:52.236Z,93.83
2022-08-28T06:30:19.543Z,93.58
2022-08-28T06:38:10.697Z,94.63
2022-08-28T06:41:39.068Z,94.80
2022-08-28T06:44:48.699Z,93.66
2022-08-28T06:51:57.961Z,93.37
2022-08-28T06:57:51.621Z,93.28
2022-08-28T07:00:18.851Z,93.77
2022-08-28T07:02:46.048Z,93.46
2022-08-28T07:05:12.745Z,92.60
2022-08-28T07:07:39.370Z,92.96
2022-08-28T07:10:06.301Z,91.28
2022-08-28T07:12:33.395Z,91.41
2022-08-28T07:15:00.096Z,91.18
2022-08-28T07:17:26.773Z,90.90
2022-08-28T07:19:53.627Z,90.73
2022-08-28T07:22:21.445Z,90.17
2022-08-28T07:24:48.061Z,90.08
2022-08-28T07:27:18.781Z,89.50
2022-08-28T07:29:45.740Z,89.42
2022-08-28T07:32:12.337Z,89.31
2022-08-28T07:34:39.104Z,88.93
2022-08-28T07:37:08.144Z,89.04
2022-08-28T07:39:36.724Z,89.03
2022-08-28T07:42:03.492Z,88.37
2022-08-28T07:44:30.175Z,88.70
2022-08-28T07:46:57.988Z,88.15
2022-08-28T07:49:24.822Z,88.64
2022-08-28T07:51:53.891Z,88.57
2022-08-28T07:54:21.437Z,88.27
2022-08-28T07:56:48.034Z,88.79
2022-08-28T07:59:16.643Z,88.52
2022-08-28T08:01:44.255Z,87.18
2022-08-28T08:04:11.276Z,87.29
2022-08-28T08:06:38.007Z,85.28
2022-08-28T08:09:05.464Z,84.83
2022-08-28T08:11:32.795Z,86.06
2022-08-28T08:14:00.553Z,85.84
2022-08-28T08:16:27.592Z,84.63
2022-08-28T08:18:54.596Z,84.23
2022-08-28T08:21:21.608Z,83.81
2022-08-28T08:23:48.792Z,84.42
2022-08-28T08:26:17.963Z,84.28
2022-08-28T08:28:44.814Z,82.87
2022-08-28T08:31:19.699Z,82.46
2022-08-28T08:33:48.028Z,82.60
2022-08-28T08:36:16.010Z,83.18
2022-08-28T08:38:42.814Z,82.63
2022-08-28T08:41:22.923Z,82.60
2022-08-28T08:43:57.941Z,81.26
2022-08-28T08:46:31.367Z,79.03
2022-08-28T08:49:01.189Z,78.76
2022-08-28T08:51:37.230Z,79.29
2022-08-28T08:54:06.087Z,79.24
2022-08-28T08:56:34.465Z,77.87
2022-08-28T08:59:01.965Z,79.14
2022-08-28T09:01:35.927Z,77.76
2022-08-28T09:04:16.399Z,76.86
2022-08-28T09:07:28.620Z,75.22
2022-08-28T09:09:56.490Z,74.49
2022-08-28T09:12:27.813Z,74.15
2022-08-28T09:14:58.116Z,75.51
2022-08-28T09:17:27.749Z,73.60
2022-08-28T09:19:54.563Z,71.89
2022-08-28T09:22:21.166Z,69.06
2022-08-28T09:24:47.932Z,68.88
2022-08-28T09:27:33.381Z,69.25
2022-08-28T09:30:08.634Z,69.73
2022-08-28T09:32:37.306Z,69.47
2022-08-28T09:35:36.258Z,69.86
2022-08-28T09:38:18.051Z,66.86
2022-08-28T09:40:44.882Z,64.78
2022-08-28T09:43:17.299Z,64.09
2022-08-28T09:45:44.914Z,68.34
2022-08-28T09:48:23.325Z,65.28
2022-08-28T09:51:13.383Z,65.76
2022-08-28T09:53:56.153Z,67.78
2022-08-28T09:56:34.497Z,70.59
2022-08-28T09:59:07.173Z,68.56
2022-08-28T10:01:46.382Z,70.07
2022-08-28T10:04:12.906Z,71.05
2022-08-28T10:06:39.571Z,71.05
2022-08-28T10:09:25.486Z,72.70
2022-08-28T10:12:19.720Z,71.18
2022-08-28T10:14:49.208Z,70.98
2022-08-28T10:17:28.722Z,71.11
2022-08-28T10:20:01.502Z,71.26
2022-08-28T10:22:46.171Z,72.30
2022-08-28T10:25:34.577Z,68.71
2022-08-28T10:28:27.726Z,68.60
2022-08-28T10:31:21.111Z,67.48
2022-08-28T10:34:06.915Z,68.90
2022-08-28T10:36:35.161Z,69.18
2022-08-28T10:39:20.065Z,68.21
2022-08-28T10:41:54.060Z,70.17
2022-08-28T10:44:39.361Z,72.10
2022-08-28T10:47:06.098Z,71.41
2022-08-28T10:49:37.219Z,70.36
2022-08-28T10:52:04.573Z,69.83
2022-08-28T10:54:41.590Z,69.93
2022-08-28T10:57:30.699Z,70.02
2022-08-28T10:59:58.597Z,70.69
2022-08-28T11:02:26.219Z,71.46
2022-08-28T11:04:58.362Z,70.58
2022-08-28T11:07:55.364Z,69.54
2022-08-28T11:10:33.898Z,70.75
2022-08-28T11:13:01.005Z,68.59
2022-08-28T11:15:34.218Z,70.30
2022-08-28T11:18:11.841Z,69.73
2022-08-28T11:20:38.521Z,69.00
2022-08-28T11:23:32.951Z,67.45
2022-08-28T11:26:03.985Z,67.41
2022-08-28T11:28:36.826Z,68.15
2022-08-28T11:31:06.658Z,67.10
2022-08-28T11:33:40.994Z,69.39
2022-08-28T11:36:33.109Z,66.98
2022-08-28T11:39:17.755Z,65.33
2022-08-28T11:42:09.337Z,65.85
2022-08-28T11:44:41.992Z,66.58
2022-08-28T11:47:38.657Z,67.18
2022-08-28T11:50:23.110Z,66.93
2022-08-28T11:53:16.765Z,65.99
2022-08-28T11:56:13.734Z,64.18
2022-08-28T11:59:35.552Z,66.61
2022-08-28T12:02:39.721Z,67.68
2022-08-28T12:05:08.890Z,66.76
2022-08-28T12:07:37.878Z,66.25
2022-08-28T12:10:24.669Z,65.88
2022-08-28T12:13:00.386Z,67.16
2022-08-28T12:15:30.041Z,68.67
2022-08-28T12:18:11.603Z,68.92
2022-08-28T12:20:57.246Z,68.78
2022-08-28T12:23:23.728Z,66.91
2022-08-28T12:25:57.800Z,68.44
2022-08-28T12:28:39.848Z,67.92
2022-08-28T12:31:09.423Z,68.63
2022-08-28T12:34:16.973Z,68.77
2022-08-28T12:36:43.897Z,68.36
2022-08-28T12:39:16.153Z,66.37
2022-08-28T12:41:43.480Z,67.90
2022-08-28T12:44:10.310Z,65.50
2022-08-28T12:46:37.509Z,66.62
2022-08-28T12:49:05.770Z,64.10
2022-08-28T12:51:34.108Z,63.01
2022-08-28T12:54:04.653Z,63.30
2022-08-28T12:56:36.027Z,63.88
2022-08-28T12:59:21.864Z,65.04
2022-08-28T13:01:54.088Z,66.76
2022-08-28T13:04:41.026Z,63.54
2022-08-28T13:07:10.844Z,64.38
2022-08-28T13:09:38.060Z,62.92
2022-08-28T13:12:07.221Z,63.05
2022-08-28T13:14:42.741Z,61.27
2022-08-28T13:17:10.394Z,61.63
2022-08-28T13:19:37.457Z,62.68
2022-08-28T13:22:34.390Z,64.43
2022-08-28T13:25:02.681Z,65.07
2022-08-28T13:27:29.475Z,64.62
2022-08-28T13:30:05.623Z,66.65
2022-08-28T13:32:33.787Z,65.04
2022-08-28T13:35:20.348Z,63.65
2022-08-28T13:37:57.858Z,65.12
2022-08-28T13:43:16.402Z,61.56
2022-08-28T13:45:45.115Z,62.96
2022-08-28T13:48:12.991Z,60.76
2022-08-28T13:50:40.131Z,62.29
2022-08-28T13:53:06.888Z,62.47
2022-08-28T13:55:33.706Z,62.25
2022-08-28T13:58:00.445Z,61.74
2022-08-28T14:00:27.116Z,62.44
2022-08-28T14:02:53.833Z,62.32
2022-08-28T14:05:20.492Z,63.13
2022-08-28T14:07:47.173Z,61.90
2022-08-28T14:10:13.896Z,61.68
2022-08-28T14:12:40.584Z,61.67
2022-08-28T14:15:07.589Z,62.41
2022-08-28T14:17:34.221Z,60.91
2022-08-28T14:20:00.963Z,60.07
2022-08-28T14:22:27.740Z,61.64
2022-08-28T14:24:54.414Z,62.49
2022-08-28T14:27:21.205Z,61.58
2022-08-28T14:29:47.961Z,61.09
2022-08-28T14:32:14.931Z,60.18
2022-08-28T14:34:41.694Z,59.41
2022-08-28T14:37:08.406Z,59.91
2022-08-28T14:39:35.186Z,61.38
2022-08-28T14:42:04.113Z,62.00
2022-08-28T14:44:38.279Z,61.55
2022-08-28T14:47:05.094Z,61.27
2022-08-28T14:49:31.755Z,61.21
2022-08-28T14:51:58.475Z,60.64
2022-08-28T14:54:25.223Z,60.93
2022-08-28T14:56:52.078Z,59.36
2022-08-28T14:59:23.972Z,60.57
2022-08-28T15:01:51.378Z,62.33
2022-08-28T15:04:20.772Z,62.89
2022-08-28T15:06:49.490Z,63.72
2022-08-28T15:09:16.376Z,63.24
2022-08-28T15:11:43.742Z,61.42
2022-08-28T15:14:10.831Z,61.35
2022-08-28T15:16:45.577Z,60.12
2022-08-28T15:19:12.885Z,60.57
2022-08-28T15:21:48.612Z,60.94
2022-08-28T15:24:16.364Z,59.86
2022-08-28T15:26:43.167Z,59.49
2022-08-28T15:29:09.907Z,61.16
2022-08-28T15:31:40.013Z,60.15
2022-08-28T15:34:23.046Z,60.21
2022-08-28T15:36:55.555Z,59.97
2022-08-28T15:39:26.945Z,60.84
2022-08-28T15:41:53.917Z,60.47
2022-08-28T15:44:20.560Z,60.71
2022-08-28T15:46:52.727Z,60.49
2022-08-28T15:49:19.522Z,62.58
2022-08-28T15:51:46.542Z,62.61
2022-08-28T15:54:13.258Z,63.28
2022-08-28T15:56:40.196Z,62.80
2022-08-28T15:59:10.193Z,62.67
2022-08-28T16:01:36.877Z,62.50
2022-08-28T16:04:04.644Z,63.11
2022-08-28T16:06:31.400Z,62.52
2022-08-28T16:08:58.093Z,62.79
2022-08-28T16:11:24.906Z,62.98
2022-08-28T16:13:51.872Z,62.91
2022-08-28T16:16:18.700Z,63.40
2022-08-28T16:18:45.785Z,62.19
2022-08-28T16:21:12.659Z,62.38
2022-08-28T16:23:39.381Z,61.39
2022-08-28T16:26:06.531Z,62.89
2022-08-28T16:28:33.558Z,63.79
2022-08-28T16:31:05.109Z,62.48
2022-08-28T16:33:34.445Z,62.23
2022-08-28T16:36:01.203Z,62.78
2022-08-28T16:38:27.852Z,64.46
2022-08-28T16:40:54.536Z,63.33
2022-08-28T16:43:21.140Z,63.92
2022-08-28T16:45:47.923Z,62.81
2022-08-28T16:48:15.150Z,63.95
2022-08-28T16:50:42.519Z,65.26
2022-08-28T16:53:09.162Z,65.30
2022-08-28T16:55:36.017Z,64.04
2022-08-28T16:58:03.387Z,64.68
2022-08-28T17:00:30.234Z,65.69
2022-08-28T17:02:57.250Z,64.93
2022-08-28T17:05:23.978Z,65.21
2022-08-28T17:07:50.771Z,64.38
2022-08-28T17:10:18.874Z,65.27
2022-08-28T17:12:45.561Z,65.09
2022-08-28T17:15:12.289Z,65.02
2022-08-28T17:17:38.879Z,65.68
2022-08-28T17:20:08.716Z,65.74
2022-08-28T17:22:35.389Z,66.06
2022-08-28T17:25:03.842Z,66.61
2022-08-28T17:27:30.547Z,67.01
2022-08-28T17:29:57.220Z,67.69
2022-08-28T17:32:23.987Z,68.09
2022-08-28T17:34:50.713Z,68.87
2022-08-28T17:37:17.380Z,69.75
2022-08-28T17:39:44.051Z,71.01
2022-08-28T17:42:10.851Z,72.29
2022-08-28T17:44:37.629Z,68.66
2022-08-28T17:47:04.384Z,68.08
2022-08-28T17:49:31.778Z,70.27
2022-08-28T17:51:58.552Z,71.39
2022-08-28T17:54:25.274Z,72.82
2022-08-28T17:56:52.509Z,73.98
2022-08-28T17:59:19.256Z,73.54
2022-08-28T18:01:45.956Z,73.19
2022-08-28T18:04:13.585Z,73.30
2022-08-28T18:06:40.468Z,75.03
2022-08-28T18:09:07.816Z,73.97
2022-08-28T18:11:34.570Z,74.86
2022-08-28T18:14:01.192Z,75.94
2022-08-28T18:16:31.421Z,77.45
2022-08-28T18:19:01.942Z,78.77
2022-08-28T18:21:28.739Z,79.25
2022-08-28T18:23:55.378Z,80.01
2022-08-28T18:26:22.142Z,81.39
2022-08-28T18:28:49.009Z,80.62
2022-08-28T18:31:16.785Z,81.38
2022-08-28T18:33:43.609Z,83.36
2022-08-28T18:36:11.304Z,82.46
2022-08-28T18:38:38.229Z,82.99
2022-08-28T18:41:05.377Z,82.93
2022-08-28T18:43:32.024Z,83.97
2022-08-28T18:45:59.400Z,83.92
2022-08-28T18:48:26.197Z,84.03
2022-08-28T18:50:52.851Z,83.70
2022-08-28T18:53:21.534Z,84.11
2022-08-28T18:55:50.555Z,84.20
2022-08-28T18:58:21.061Z,84.19
2022-08-28T19:00:48.005Z,84.21
2022-08-28T19:03:14.665Z,84.00
2022-08-28T19:05:41.405Z,84.46
2022-08-28T19:08:08.078Z,85.39
2022-08-28T19:10:35.334Z,84.73
2022-08-28T19:13:02.342Z,85.30
2022-08-28T19:15:29.271Z,84.28
2022-08-28T19:17:56.151Z,84.71
2022-08-28T19:20:22.892Z,84.95
2022-08-28T19:22:49.823Z,85.58
2022-08-28T19:25:27.464Z,85.38
2022-08-28T19:27:59.360Z,85.13
2022-08-28T19:30:26.696Z,86.23
2022-08-28T19:32:53.425Z,85.40
2022-08-28T19:35:20.532Z,86.43
2022-08-28T19:37:51.385Z,86.67
2022-08-28T19:40:18.728Z,86.61
2022-08-28T19:42:45.541Z,86.72
2022-08-28T19:45:12.971Z,87.00
2022-08-28T19:47:39.665Z,87.38
2022-08-28T19:50:07.217Z,86.75
2022-08-28T19:52:34.630Z,87.74
2022-08-28T19:55:01.367Z,87.29
2022-08-28T19:57:28.040Z,86.79
2022-08-28T19:59:54.729Z,86.67
2022-08-28T20:02:21.385Z,87.16
2022-08-28T20:04:48.229Z,87.97
2022-08-28T20:07:14.892Z,87.34
2022-08-28T20:09:41.631Z,87.95
2022-08-28T20:12:08.352Z,88.64
2022-08-28T20:14:35.064Z,88.41
2022-08-28T20:17:02.096Z,88.09
2022-08-28T20:19:28.757Z,88.58
2022-08-28T20:21:55.986Z,88.00
2022-08-28T20:24:23.067Z,88.14
2022-08-28T20:26:50.164Z,88.64
2022-08-28T20:29:16.905Z,88.48
2022-08-28T20:31:45.709Z,88.98
2022-08-28T20:34:12.450Z,89.68
2022-08-28T20:36:39.109Z,89.91
2022-08-28T20:39:06.091Z,89.98
2022-08-28T20:41:32.841Z,90.37
2022-08-28T20:43:59.607Z,89.77
2022-08-28T20:46:26.683Z,89.71
2022-08-28T20:48:53.506Z,89.69
2022-08-28T20:51:20.210Z,90.40
2022-08-28T20:53:46.959Z,89.98
2022-08-28T20:56:13.671Z,90.43
2022-08-28T20:58:40.377Z,90.28
2022-08-28T21:01:07.080Z,89.82
2022-08-28T21:03:33.753Z,90.17
2022-08-28T21:06:00.416Z,91.21
2022-08-28T21:08:27.134Z,90.70
2022-08-28T21:10:53.792Z,90.41
2022-08-28T21:13:20.749Z,90.34
2022-08-28T21:15:47.453Z,90.64
2022-08-28T21:18:14.224Z,90.90
2022-08-28T21:20:40.892Z,90.38
2022-08-28T21:23:07.595Z,90.47
2022-08-28T21:25:34.173Z,90.58
2022-08-28T21:28:04.344Z,90.55
2022-08-28T21:30:31.146Z,90.79
2022-08-28T21:32:57.847Z,90.83
2022-08-28T21:35:24.543Z,90.56
2022-08-28T21:37:51.223Z,91.14
2022-08-28T21:40:18.235Z,91.01
2022-08-28T21:42:44.892Z,91.35
2022-08-28T21:45:12.334Z,90.86
2022-08-28T21:47:39.709Z,90.95
2022-08-28T21:50:07.289Z,91.55
2022-08-28T21:52:34.009Z,91.32
2022-08-28T21:55:02.575Z,91.16
2022-08-28T21:57:29.470Z,91.18
2022-08-28T21:59:56.168Z,90.74
2022-08-28T22:02:23.005Z,91.04
2022-08-28T22:04:49.830Z,91.77
2022-08-28T22:07:17.256Z,91.83
2022-08-28T22:09:44.365Z,91.55
2022-08-28T22:12:11.014Z,91.95
2022-08-28T22:14:37.805Z,91.88
2022-08-28T22:17:10.157Z,92.04
2022-08-28T22:19:38.565Z,90.90
2022-08-28T22:22:05.271Z,91.96
2022-08-28T22:24:31.952Z,91.63
2022-08-28T22:26:58.753Z,91.50
2022-08-28T22:29:25.671Z,92.08
2022-08-28T22:31:52.440Z,91.71
2022-08-28T22:34:19.142Z,91.61
2022-08-28T22:36:45.866Z,91.86
2022-08-28T22:39:12.545Z,92.47
2022-08-28T22:41:39.336Z,91.82
2022-08-28T22:44:05.985Z,91.79
2022-08-28T22:46:32.637Z,91.86
2022-08-28T22:48:59.385Z,92.20
2022-08-28T22:51:26.159Z,92.35
2022-08-28T22:53:52.846Z,92.04
2022-08-28T22:56:19.501Z,92.83
2022-08-28T22:58:46.100Z,92.95
2022-08-28T23:01:18.125Z,93.42
2022-08-28T23:03:44.922Z,93.69
2022-08-28T23:06:11.719Z,93.50
2022-08-28T23:08:38.369Z,92.37
2022-08-28T23:11:05.091Z,92.13
2022-08-28T23:13:31.847Z,92.82
2022-08-28T23:15:59.394Z,92.27
2022-08-28T23:18:26.013Z,93.18
2022-08-28T23:20:54.496Z,92.87
2022-08-28T23:23:21.164Z,93.19
2022-08-28T23:25:47.864Z,93.43
2022-08-28T23:28:14.641Z,93.44
2022-08-28T23:30:48.231Z,93.41
2022-08-28T23:33:19.721Z,93.44
2022-08-28T23:35:50.340Z,93.56
2022-08-28T23:38:17.011Z,93.59
2022-08-28T23:40:44.229Z,93.86
2022-08-28T23:43:11.141Z,93.64
2022-08-28T23:45:39.463Z,93.68
2022-08-28T23:48:06.400Z,94.16
2022-08-28T23:50:33.311Z,94.36
2022-08-28T23:53:01.860Z,94.38
2022-08-28T23:55:28.917Z,94.28
2022-08-28T23:57:55.759Z,94.28
